createdAt,value
2018-04-10T02:40:17.870Z,9.90
2018-04-10T02:42:45.355Z,9.90
2018-04-10T02:47:41.666Z,9.90
2018-04-10T02:50:09.143Z,9.90
2018-04-10T02:52:36.638Z,9.90
2018-04-10T02:55:04.873Z,9.90
2018-04-10T02:57:32.341Z,9.90
2018-04-10T03:04:57.463Z,9.90
2018-04-10T03:24:49.879Z,9.90
2018-04-10T06:28:45.192Z,12.50
2018-04-10T06:33:41.716Z,13.10
2018-04-10T06:36:09.224Z,13.10
2018-04-10T06:38:37.862Z,13.60
2018-04-10T06:41:05.359Z,13.60
2018-04-10T06:43:33.002Z,13.90
2018-04-10T06:46:00.483Z,14.40
2018-04-10T06:48:27.979Z,14.80
2018-04-10T06:50:55.451Z,15.30
2018-04-10T06:53:23.206Z,16.10
2018-04-10T06:55:50.723Z,16.80
2018-04-10T06:58:18.271Z,17.40
2018-04-10T07:00:47.294Z,18.00
2018-04-10T07:03:14.795Z,18.00
2018-04-10T07:05:42.271Z,18.20
2018-04-10T07:08:09.744Z,18.30
2018-04-10T07:10:37.247Z,18.30
2018-04-10T07:13:05.016Z,18.40
2018-04-10T07:15:32.491Z,18.30
2018-04-10T07:18:00.234Z,18.00
2018-04-10T07:20:27.864Z,18.30
2018-04-10T07:22:56.107Z,18.70
2018-04-10T07:25:23.599Z,18.70
2018-04-10T07:27:51.835Z,19.50
2018-04-10T07:30:19.329Z,19.50
2018-04-10T07:32:47.592Z,20.40
2018-04-10T07:35:15.850Z,20.20
2018-04-10T07:37:43.459Z,20.20
2018-04-10T07:40:10.972Z,20.50
2018-04-10T07:42:38.443Z,19.80
2018-04-10T07:45:06.685Z,19.80
2018-04-10T07:47:34.287Z,19.80
2018-04-10T07:50:02.532Z,20.50
2018-04-10T07:52:30.965Z,20.40
2018-04-10T07:54:58.463Z,20.50
2018-04-10T07:57:25.939Z,20.90
2018-04-10T07:59:53.542Z,21.10
2018-04-10T08:02:21.035Z,21.70
2018-04-10T08:04:48.552Z,21.40
2018-04-10T08:07:16.772Z,20.90
2018-04-10T08:09:44.264Z,20.90
2018-04-10T08:12:12.656Z,21.00
2018-04-10T08:14:40.139Z,21.00
2018-04-10T08:17:07.635Z,21.20
2018-04-10T08:19:35.939Z,21.80
2018-04-10T08:22:03.427Z,21.80
2018-04-10T08:24:30.959Z,21.80
2018-04-10T08:26:59.142Z,21.70
2018-04-10T08:29:26.619Z,22.00
2018-04-10T08:31:54.130Z,21.80
2018-04-10T08:34:22.379Z,22.00
2018-04-10T08:36:49.858Z,22.00
2018-04-10T08:39:18.275Z,22.00
2018-04-10T08:41:45.898Z,21.90
2018-04-10T08:44:14.148Z,21.70
2018-04-10T08:46:41.973Z,21.70
2018-04-10T08:49:09.468Z,21.50
2018-04-10T08:51:37.259Z,21.80
2018-04-10T08:54:05.520Z,22.60
2018-04-10T08:56:32.995Z,22.50
2018-04-10T08:59:01.238Z,22.50
2018-04-10T09:01:28.758Z,22.50
2018-04-10T09:03:56.228Z,22.20
2018-04-10T09:06:23.708Z,21.80
2018-04-10T09:08:51.203Z,22.10
2018-04-10T09:11:19.483Z,21.90
2018-04-10T09:13:47.727Z,21.70
2018-04-10T09:16:16.032Z,21.40
2018-04-10T09:18:43.580Z,21.40
2018-04-10T09:21:11.855Z,21.40
2018-04-10T09:23:40.127Z,21.50
2018-04-10T09:26:08.367Z,21.60
2018-04-10T09:28:35.863Z,21.60
2018-04-10T09:31:04.384Z,21.40
2018-04-10T09:33:31.859Z,21.30
2018-04-10T09:35:59.332Z,21.90
2018-04-10T09:38:27.164Z,22.20
2018-04-10T09:40:54.720Z,22.50
2018-04-10T09:43:22.243Z,22.60
2018-04-10T09:45:50.503Z,22.50
2018-04-10T09:48:17.975Z,22.40
2018-04-10T09:50:46.226Z,21.60
2018-04-10T09:53:13.728Z,21.60
2018-04-10T09:55:41.207Z,21.90
2018-04-10T09:58:08.687Z,22.30
2018-04-10T10:00:41.327Z,22.70
2018-04-10T10:03:08.811Z,23.00
2018-04-10T10:05:36.292Z,23.00
2018-04-10T10:08:05.344Z,23.70
2018-04-10T10:10:33.045Z,23.70
2018-04-10T10:20:30.311Z,24.70
2018-04-10T10:22:57.810Z,24.60
2018-04-10T10:25:25.304Z,24.90
2018-04-10T10:27:52.784Z,24.80
2018-04-10T10:30:20.438Z,24.50
2018-04-10T10:32:47.931Z,25.00
2018-04-10T10:35:15.426Z,25.20
2018-04-10T10:37:43.687Z,25.60
2018-04-10T10:40:11.960Z,25.90
2018-04-10T10:42:39.439Z,25.90
2018-04-10T10:45:06.931Z,24.90
2018-04-10T10:47:34.410Z,24.40
2018-04-10T10:50:01.880Z,24.80
2018-04-10T10:52:29.375Z,24.90
2018-04-10T10:54:56.912Z,25.00
2018-04-10T10:57:25.155Z,25.40
2018-04-10T10:59:52.743Z,25.30
2018-04-10T11:02:20.988Z,24.20
2018-04-10T11:04:48.471Z,24.10
2018-04-10T11:07:15.964Z,24.20
2018-04-10T11:09:43.439Z,24.30
2018-04-10T11:12:11.051Z,24.20
2018-04-10T11:14:38.648Z,24.00
2018-04-10T11:17:06.125Z,24.20
2018-04-10T11:19:33.600Z,23.80
2018-04-10T11:22:01.113Z,23.20
2018-04-10T11:24:28.595Z,23.80
2018-04-10T11:26:56.067Z,24.30
2018-04-10T11:29:23.659Z,24.90
2018-04-10T11:31:51.933Z,25.90
2018-04-10T11:34:19.641Z,25.90
2018-04-10T11:36:47.135Z,26.10
2018-04-10T11:39:14.611Z,26.10
2018-04-10T11:41:43.135Z,25.50
2018-04-10T11:44:10.628Z,25.50
2018-04-10T11:46:38.100Z,25.60
2018-04-10T11:49:05.571Z,24.60
2018-04-10T11:51:33.836Z,24.40
2018-04-10T11:54:02.092Z,24.40
2018-04-10T11:56:30.335Z,23.50
2018-04-10T11:58:57.827Z,23.50
2018-04-10T12:01:25.303Z,23.40
2018-04-10T12:03:53.575Z,24.10
2018-04-10T12:06:21.851Z,24.90
2018-04-10T12:08:50.379Z,25.50
2018-04-10T12:11:18.103Z,25.50
2018-04-10T12:13:46.379Z,26.20
2018-04-10T12:16:14.620Z,26.60
2018-04-10T12:18:42.096Z,26.60
2018-04-10T12:21:10.379Z,26.60
2018-04-10T12:23:38.630Z,26.30
2018-04-10T12:26:06.152Z,26.20
2018-04-10T12:28:33.656Z,24.90
2018-04-10T12:31:01.129Z,24.10
2018-04-10T12:33:29.520Z,24.10
2018-04-10T12:35:57.928Z,24.50
2018-04-10T12:38:25.539Z,24.50
2018-04-10T12:40:53.879Z,25.90
2018-04-10T12:43:21.366Z,25.90
2018-04-10T12:45:48.842Z,26.10
2018-04-10T12:48:17.149Z,27.10
2018-04-10T12:50:44.789Z,27.00
2018-04-10T12:53:12.584Z,27.20
2018-04-10T12:55:40.063Z,26.60
2018-04-10T12:58:07.572Z,26.10
2018-04-10T13:00:35.060Z,26.50
2018-04-10T13:03:02.548Z,26.90
2018-04-10T13:05:30.092Z,27.50
2018-04-10T13:07:57.944Z,26.80
2018-04-10T13:10:25.552Z,26.10
2018-04-10T13:12:53.811Z,26.70
2018-04-10T13:15:21.288Z,26.70
2018-04-10T13:17:49.527Z,26.40
2018-04-10T13:20:17.380Z,26.40
2018-04-10T13:22:44.856Z,26.20
2018-04-10T13:25:12.335Z,26.20
2018-04-10T13:27:40.599Z,25.90
2018-04-10T13:30:08.322Z,25.80
2018-04-10T13:32:35.875Z,25.40
2018-04-10T13:35:03.347Z,25.20
2018-04-10T13:37:30.820Z,25.30
2018-04-10T13:39:58.303Z,25.40
2018-04-10T13:42:26.567Z,25.10
2018-04-10T13:44:54.811Z,25.20
2018-04-10T13:47:22.355Z,25.20
2018-04-10T13:49:49.861Z,25.30
2018-04-10T13:52:17.341Z,25.30
2018-04-10T13:54:45.575Z,25.20
2018-04-10T13:57:13.164Z,25.20
2018-04-10T13:59:41.428Z,24.10
2018-04-10T14:02:08.995Z,24.00
2018-04-10T14:04:37.255Z,24.20
2018-04-10T14:07:04.737Z,24.20
2018-04-10T14:09:33.255Z,24.80
2018-04-10T14:12:00.816Z,24.80
2018-04-10T14:14:28.356Z,24.60
2018-04-10T14:16:55.831Z,24.60
2018-04-10T14:19:23.329Z,24.70
2018-04-10T14:21:50.803Z,24.50
2018-04-10T14:24:19.076Z,24.30
2018-04-10T14:26:47.331Z,24.00
2018-04-10T14:29:14.920Z,24.00
2018-04-10T14:31:43.191Z,24.30
2018-04-10T14:34:10.715Z,24.30
2018-04-10T14:36:38.191Z,24.50
2018-04-10T14:39:06.435Z,24.60
2018-04-10T14:41:33.992Z,24.60
2018-04-10T14:44:01.464Z,24.50
2018-04-10T14:46:28.935Z,24.40
2018-04-10T14:48:56.546Z,24.30
2018-04-10T14:51:24.024Z,24.10
2018-04-10T14:53:51.499Z,24.20
2018-04-10T14:56:19.000Z,24.00
2018-04-10T14:58:46.497Z,24.10
2018-04-10T15:01:13.971Z,24.10
2018-04-10T15:03:42.236Z,24.10
2018-04-10T15:06:09.980Z,24.00
2018-04-10T15:08:37.463Z,23.90
2018-04-10T15:11:04.963Z,23.80
2018-04-10T15:13:32.443Z,23.60
2018-04-10T15:15:59.915Z,23.50
2018-04-10T15:18:27.414Z,22.90
2018-04-10T15:20:55.664Z,21.80
2018-04-10T15:23:23.139Z,21.70
2018-04-10T15:25:50.853Z,21.70
2018-04-10T15:28:18.396Z,21.70
2018-04-10T15:30:45.883Z,21.80
2018-04-10T15:33:13.375Z,21.80
2018-04-10T15:35:40.851Z,21.80
2018-04-10T15:38:09.096Z,21.80
2018-04-10T15:40:36.587Z,21.80
2018-04-10T15:43:04.823Z,20.60
2018-04-10T15:45:32.296Z,20.60
2018-04-10T15:47:59.791Z,19.80
2018-04-10T15:50:27.270Z,18.70
2018-04-10T15:52:54.779Z,18.10
2018-04-10T15:55:23.036Z,17.00
2018-04-10T15:57:51.276Z,16.50
2018-04-10T16:00:18.756Z,16.50
2018-04-10T16:02:46.280Z,16.40
2018-04-10T16:05:13.747Z,16.10
2018-04-10T16:07:41.223Z,15.80
2018-04-10T16:10:08.723Z,15.50
2018-04-10T16:12:36.999Z,15.20
2018-04-10T16:15:05.236Z,15.20
2018-04-10T16:17:32.731Z,15.20
2018-04-10T16:20:00.976Z,14.70
2018-04-10T16:22:28.572Z,14.70
2018-04-10T16:24:57.083Z,14.20
2018-04-10T16:27:24.560Z,14.20
2018-04-10T16:29:52.051Z,14.00
2018-04-10T16:32:20.575Z,13.90
2018-04-10T16:34:48.059Z,13.90
2018-04-10T16:37:15.546Z,13.60
2018-04-10T16:39:43.856Z,13.40
2018-04-10T16:42:11.327Z,13.40
2018-04-10T16:44:38.803Z,13.30
2018-04-10T16:47:06.333Z,13.20
2018-04-10T16:49:33.812Z,12.90
2018-04-10T16:52:01.295Z,12.80
2018-04-10T16:54:28.791Z,12.80
2018-04-10T16:56:56.271Z,12.60
2018-04-10T16:59:23.782Z,12.50
2018-04-10T17:01:52.307Z,12.40
2018-04-10T17:04:19.791Z,12.40
2018-04-10T17:06:47.268Z,12.20
2018-04-10T17:09:14.862Z,12.20
2018-04-10T17:11:42.347Z,12.20
2018-04-10T17:14:09.824Z,12.20
2018-04-10T17:16:37.392Z,12.00
2018-04-10T17:19:05.175Z,11.80
2018-04-10T17:21:33.426Z,11.60
2018-04-10T17:24:00.923Z,11.60
2018-04-10T17:26:29.235Z,11.40
2018-04-10T17:28:56.711Z,11.40
2018-04-10T17:31:24.742Z,11.20
2018-04-10T17:33:52.819Z,11.30
2018-04-10T17:36:20.390Z,11.20
2018-04-10T17:38:48.145Z,11.20
2018-04-10T17:41:15.622Z,11.30
2018-04-10T17:43:43.115Z,11.20
2018-04-10T17:46:11.383Z,11.10
2018-04-10T17:48:39.707Z,11.20
2018-04-10T17:51:07.199Z,11.10
2018-04-10T17:53:34.691Z,11.20
2018-04-10T17:56:02.983Z,11.20
2018-04-10T17:58:30.771Z,11.20
2018-04-10T18:00:58.295Z,11.20
2018-04-10T18:03:26.532Z,11.20
2018-04-10T18:05:54.007Z,11.10
2018-04-10T18:08:22.299Z,10.20
2018-04-10T18:10:50.713Z,9.30
2018-04-10T18:13:18.499Z,9.30
2018-04-10T18:15:45.987Z,9.10
2018-04-10T18:18:14.265Z,9.60
2018-04-10T18:20:42.516Z,9.60
2018-04-10T18:23:10.016Z,9.60
2018-04-10T18:25:37.559Z,9.50
2018-04-10T18:28:05.808Z,9.40
2018-04-10T18:30:33.303Z,9.30
2018-04-10T18:33:01.548Z,9.40
2018-04-10T18:35:29.023Z,9.40
2018-04-10T18:37:57.299Z,9.40
2018-04-10T18:40:25.543Z,9.40
2018-04-10T18:42:53.283Z,9.40
2018-04-10T18:45:20.787Z,9.40
2018-04-10T18:47:48.259Z,9.30
2018-04-10T18:50:16.499Z,9.20
2018-04-10T18:52:44.181Z,9.20
2018-04-10T18:55:11.631Z,9.30
2018-04-10T18:57:40.175Z,9.20
2018-04-10T19:00:07.722Z,9.20
2018-04-10T19:02:35.227Z,9.10
2018-04-10T19:05:02.948Z,9.20
2018-04-10T19:07:30.444Z,9.10
2018-04-10T19:09:57.935Z,9.00
2018-04-10T19:12:25.454Z,9.00
2018-04-10T19:14:52.956Z,8.80
2018-04-10T19:17:20.429Z,8.80
2018-04-10T19:19:47.922Z,8.80
2018-04-10T19:22:15.444Z,8.90
2018-04-10T19:24:43.820Z,8.90
2018-04-10T19:27:11.292Z,9.00
2018-04-10T19:29:38.812Z,9.00
2018-04-10T19:32:06.507Z,9.00
2018-04-10T19:34:34.000Z,8.90
2018-04-10T19:37:01.524Z,8.90
2018-04-10T19:39:29.004Z,8.90
2018-04-10T19:41:56.494Z,8.80
2018-04-10T19:44:24.764Z,8.80
2018-04-10T19:46:53.080Z,8.90
2018-04-10T19:49:20.585Z,8.90
2018-04-10T19:51:48.104Z,8.90
2018-04-10T19:54:15.663Z,9.00
2018-04-10T19:56:43.135Z,8.90
2018-04-10T19:59:10.624Z,8.80
2018-04-10T20:01:38.867Z,8.70
2018-04-10T20:04:06.395Z,8.70
2018-04-10T20:06:33.888Z,8.70
2018-04-10T20:09:01.365Z,8.70
2018-04-10T20:11:28.838Z,8.70
2018-04-10T20:13:57.360Z,8.80
2018-04-10T20:16:25.640Z,8.80
2018-04-10T20:18:53.120Z,8.80
2018-04-10T20:21:20.713Z,8.90
2018-04-10T20:23:48.951Z,8.80
2018-04-10T20:26:16.434Z,8.80
2018-04-10T20:28:44.968Z,8.60
2018-04-10T20:31:12.439Z,8.60
2018-04-10T20:33:39.916Z,8.70
2018-04-10T20:36:07.412Z,8.60
2018-04-10T20:38:34.904Z,8.70
2018-04-10T20:41:02.397Z,8.80
2018-04-10T20:43:29.899Z,8.50
2018-04-10T20:45:57.375Z,8.40
2018-04-10T20:48:24.855Z,8.30
2018-04-10T20:50:52.351Z,8.30
2018-04-10T20:53:20.588Z,8.30
2018-04-10T20:55:48.071Z,8.30
2018-04-10T20:58:16.373Z,8.20
2018-04-10T21:00:43.837Z,8.20
2018-04-10T21:03:11.311Z,8.30
2018-04-10T21:05:38.812Z,8.20
2018-04-10T21:08:07.051Z,8.20
2018-04-10T21:10:34.527Z,8.20
2018-04-10T21:13:02.046Z,8.20
2018-04-10T21:15:29.528Z,8.20
2018-04-10T21:17:57.004Z,8.20
2018-04-10T21:20:25.275Z,8.10
2018-04-10T21:22:52.859Z,8.10
2018-04-10T21:25:21.103Z,8.20
2018-04-10T21:27:48.599Z,8.10
2018-04-10T21:30:16.843Z,8.20
2018-04-10T21:32:44.383Z,8.20
2018-04-10T21:35:11.880Z,8.20
2018-04-10T21:37:40.176Z,8.30
2018-04-10T21:40:07.715Z,8.20
2018-04-10T21:42:41.579Z,8.40
2018-04-10T21:45:09.051Z,8.30
2018-04-10T21:47:36.527Z,8.40
2018-04-10T21:50:05.692Z,8.40
2018-04-10T21:52:33.187Z,8.40
2018-04-10T21:55:01.675Z,8.40
2018-04-10T21:57:29.960Z,8.50
2018-04-10T21:59:58.183Z,8.50
2018-04-10T22:02:25.679Z,8.50
2018-04-10T22:04:53.977Z,8.50
2018-04-10T22:07:22.479Z,8.50
2018-04-10T22:09:49.967Z,8.50
2018-04-10T22:12:17.468Z,8.50
2018-04-10T22:14:45.012Z,8.60
2018-04-10T22:17:13.251Z,8.60
2018-04-10T22:19:40.747Z,8.50
2018-04-10T22:22:08.983Z,8.50
2018-04-10T22:24:36.483Z,8.50
2018-04-10T22:27:04.999Z,8.50
2018-04-10T22:29:32.520Z,8.50
2018-04-10T22:32:00.759Z,8.50
2018-04-10T22:34:28.661Z,8.50
2018-04-10T22:36:56.144Z,8.50
2018-04-10T22:39:23.619Z,8.40
2018-04-10T22:41:51.119Z,8.40
2018-04-10T22:44:18.659Z,8.40
2018-04-10T22:46:46.899Z,8.60
2018-04-10T22:49:14.395Z,8.60
2018-04-10T22:51:42.639Z,8.60
2018-04-10T22:54:10.467Z,8.60
2018-04-10T22:56:37.965Z,8.40
2018-04-10T22:59:06.266Z,8.30
2018-04-10T23:01:34.804Z,8.20
2018-04-10T23:04:02.408Z,8.20
2018-04-10T23:06:30.656Z,8.00
2018-04-10T23:08:58.396Z,7.90
2018-04-10T23:11:25.896Z,7.90
2018-04-10T23:13:53.376Z,8.00
2018-04-10T23:16:21.626Z,8.10
2018-04-10T23:18:49.125Z,8.10
2018-04-10T23:21:17.396Z,8.10
2018-04-10T23:23:45.644Z,8.10
2018-04-10T23:26:13.387Z,8.10
2018-04-10T23:28:40.872Z,8.10
2018-04-10T23:31:08.612Z,8.10
2018-04-10T23:33:36.112Z,8.20
2018-04-10T23:36:04.357Z,8.10
2018-04-10T23:38:31.836Z,8.10
2018-04-10T23:40:59.353Z,8.10
2018-04-10T23:43:26.828Z,8.10
2018-04-10T23:45:54.311Z,8.20
2018-04-10T23:48:21.809Z,8.10
2018-04-10T23:50:49.351Z,8.10
2018-04-10T23:53:17.600Z,8.10
2018-04-10T23:55:45.428Z,8.10
2018-04-10T23:58:12.944Z,8.00
